Egham, United Kingdom
Current Conditions -  °F | °C
As of 1:20 AM on Saturday 29 Nov 2014 (Local Time) from EGLL Reporting Station
Clear Clear  
Wind Chill: 11°   Ceiling: Unl
Heat Index: 11°   Visibility: 5mi
Dew Point: 10°   Wind: 7mph
Humidity: 94%   Direction: 60°ENE
Pressure: 29.74"   Gusts: NA
Location:  51.43°N, 0.55°W
Report Text: EGLL 290120Z AUTO 06006KT 8000 NCD 11/10 Q1007
Loading
Personal Weather Stations






























Interactive Weather Map New forecast layout! Learn more

10-Day Weather Forecast

Advertisements
Track Severe Weather on mobile